Time;durP1;ratioP1;P1;durP2;ratioP2;P2;SDS_P1;SDS_P2;PMS_P1;PMS_P2;Temp;Humidity;BMP_temperature;BMP_pressure;BME280_temperature;BME280_humidity;BME280_pressure;Samples;Min_cycle;Max_cycle;Signal;HPM_P1;HPM_P2
2023/04/19 00:01:32;;;;;;;12.63;7.13;;;6.50;99.90;;;;;;5031481;28;20128;-73
2023/04/19 00:03:58;;;;;;;10.10;7.20;;;6.50;99.90;;;;;;5042940;28;20044;-73
2023/04/19 00:06:24;;;;;;;9.67;6.73;;;6.50;99.90;;;;;;5050216;28;20032;-73
2023/04/19 00:08:50;;;;;;;11.57;7.05;;;6.50;99.90;;;;;;5033103;28;20072;-73
2023/04/19 00:11:16;;;;;;;9.37;6.33;;;6.50;99.90;;;;;;5050001;28;20733;-73
2023/04/19 00:13:42;;;;;;;11.03;7.23;;;6.60;99.90;;;;;;5036929;28;20048;-73
2023/04/19 00:16:07;;;;;;;10.83;6.83;;;6.60;99.90;;;;;;5032661;28;20440;-73
2023/04/19 00:18:33;;;;;;;11.13;6.43;;;6.70;99.90;;;;;;5050038;28;20037;-73
2023/04/19 00:20:59;;;;;;;9.57;6.40;;;6.70;99.90;;;;;;5025050;28;20040;-73
2023/04/19 00:23:25;;;;;;;11.17;6.83;;;6.70;99.90;;;;;;5031211;28;20079;-73
2023/04/19 00:25:51;;;;;;;13.87;7.23;;;6.70;99.90;;;;;;5048230;28;20061;-73
2023/04/19 00:28:16;;;;;;;10.07;6.93;;;6.80;99.90;;;;;;5050087;28;20045;-73
2023/04/19 00:30:42;;;;;;;10.07;6.27;;;6.80;99.90;;;;;;5031492;28;20546;-73
2023/04/19 00:33:11;;;;;;;10.57;6.63;;;6.80;99.90;;;;;;5047603;28;20071;-73
2023/04/19 00:35:43;;;;;;;9.68;6.40;;;6.80;99.90;;;;;;5048544;28;20044;-73
2023/04/19 00:38:09;;;;;;;10.48;6.20;;;6.80;99.90;;;;;;5047843;28;20505;-73
2023/04/19 00:40:36;;;;;;;10.70;6.73;;;6.70;99.90;;;;;;5027336;28;20041;-73
2023/04/19 00:43:02;;;;;;;9.63;6.03;;;6.80;99.90;;;;;;5049532;28;20123;-73
2023/04/19 00:45:27;;;;;;;9.23;6.10;;;6.80;99.90;;;;;;5029006;28;20128;-73
2023/04/19 00:47:54;;;;;;;7.50;5.63;;;6.70;99.90;;;;;;5045926;28;20076;-73
2023/04/19 00:50:20;;;;;;;11.73;7.03;;;6.70;99.90;;;;;;5033012;28;20044;-73
2023/04/19 00:52:47;;;;;;;11.25;6.50;;;6.70;99.90;;;;;;5043239;28;20072;-73
2023/04/19 00:55:13;;;;;;;9.07;6.68;;;6.60;99.90;;;;;;5040710;28;20049;-73
2023/04/19 00:57:39;;;;;;;10.50;6.43;;;6.60;99.90;;;;;;5045775;28;20052;-73
2023/04/19 01:00:07;;;;;;;10.50;6.72;;;6.60;99.90;;;;;;5031272;28;20044;-73
2023/04/19 01:02:33;;;;;;;10.27;7.22;;;6.60;99.90;;;;;;5025559;28;20032;-73
2023/04/19 01:04:59;;;;;;;13.17;6.47;;;6.70;99.90;;;;;;5043804;28;20116;-73
2023/04/19 01:07:25;;;;;;;12.83;6.87;;;6.70;99.90;;;;;;5046482;28;20488;-73
2023/04/19 01:09:51;;;;;;;8.30;6.40;;;6.60;99.90;;;;;;5040428;28;20053;-73
2023/04/19 01:12:16;;;;;;;10.87;6.67;;;6.60;99.90;;;;;;5030139;28;20037;-73
2023/04/19 01:14:43;;;;;;;13.20;7.33;;;6.70;99.90;;;;;;5031273;28;20505;-73
2023/04/19 01:17:09;;;;;;;10.57;7.43;;;6.70;99.90;;;;;;5028532;28;20079;-73
2023/04/19 01:19:36;;;;;;;9.23;7.00;;;6.70;99.90;;;;;;5048993;28;20076;-73
2023/04/19 01:22:02;;;;;;;11.43;7.07;;;6.60;99.90;;;;;;5027237;28;20041;-73
2023/04/19 01:24:29;;;;;;;10.23;7.53;;;6.60;99.90;;;;;;5029082;28;20068;-73
2023/04/19 01:26:55;;;;;;;12.50;7.38;;;6.60;99.90;;;;;;5044360;28;20048;-73
2023/04/19 01:29:21;;;;;;;9.40;7.03;;;6.60;99.90;;;;;;5028282;28;20040;-73
2023/04/19 01:31:52;;;;;;;9.90;6.97;;;6.50;99.90;;;;;;5027941;28;20058;-73
2023/04/19 01:34:22;;;;;;;10.27;7.10;;;6.50;99.90;;;;;;5044722;28;20088;-73
2023/04/19 01:36:48;;;;;;;10.98;7.40;;;6.40;99.90;;;;;;5027268;28;20041;-73
2023/04/19 01:39:13;;;;;;;9.13;6.83;;;6.40;99.90;;;;;;5048797;28;20041;-73
2023/04/19 01:41:39;;;;;;;13.93;7.27;;;6.30;99.90;;;;;;5027755;28;20929;-73
2023/04/19 01:44:05;;;;;;;11.57;7.40;;;6.30;99.90;;;;;;5046494;28;20036;-73
2023/04/19 01:46:31;;;;;;;9.83;7.07;;;6.30;99.90;;;;;;5025462;28;20477;-73
2023/04/19 01:48:56;;;;;;;11.27;7.43;;;6.30;99.90;;;;;;5027479;28;20040;-74
2023/04/19 01:51:22;;;;;;;10.47;7.90;;;6.40;99.90;;;;;;5031366;28;20044;-74
2023/04/19 01:53:52;;;;;;;11.03;7.30;;;6.50;99.90;;;;;;5048696;28;20409;-73
2023/04/19 01:56:18;;;;;;;11.38;7.95;;;6.60;99.90;;;;;;5026446;28;20493;-73
2023/04/19 01:58:44;;;;;;;11.80;8.07;;;6.60;99.90;;;;;;5044178;28;20106;-73
2023/04/19 02:01:12;;;;;;;12.60;7.83;;;6.60;99.90;;;;;;5044105;28;20045;-73
2023/04/19 02:03:39;;;;;;;11.38;7.55;;;6.60;99.90;;;;;;5047334;28;20071;-73
2023/04/19 02:06:05;;;;;;;14.23;7.88;;;6.60;99.90;;;;;;5044980;28;20041;-73
2023/04/19 02:08:31;;;;;;;12.87;7.90;;;6.60;99.90;;;;;;5015793;28;20390;-73
2023/04/19 02:10:56;;;;;;;14.10;9.02;;;6.60;99.90;;;;;;5044130;28;20048;-73
2023/04/19 02:13:22;;;;;;;12.03;7.90;;;6.70;99.90;;;;;;5047934;28;20409;-73
2023/04/19 02:15:48;;;;;;;14.63;8.27;;;6.70;99.90;;;;;;5047044;28;20139;-73
2023/04/19 02:18:13;;;;;;;11.70;8.90;;;6.70;99.90;;;;;;5041829;28;20045;-73
2023/04/19 02:20:39;;;;;;;13.73;9.17;;;6.70;99.90;;;;;;5047656;28;20041;-73
2023/04/19 02:23:05;;;;;;;13.37;8.63;;;6.60;99.90;;;;;;5043076;28;20048;-73
2023/04/19 02:25:30;;;;;;;11.73;8.13;;;6.50;99.90;;;;;;5047598;28;20139;-73
2023/04/19 02:27:56;;;;;;;12.50;8.50;;;6.50;99.90;;;;;;5030553;28;20041;-73
2023/04/19 02:30:22;;;;;;;13.63;8.23;;;6.50;99.90;;;;;;5026938;28;20132;-73
2023/04/19 02:32:48;;;;;;;16.23;8.70;;;6.30;99.90;;;;;;5047320;28;20102;-73
2023/04/19 02:35:14;;;;;;;12.60;8.48;;;6.30;99.90;;;;;;5047378;28;20049;-73
2023/04/19 02:37:40;;;;;;;12.97;8.73;;;6.20;99.90;;;;;;5045924;28;20509;-73
2023/04/19 02:40:07;;;;;;;14.18;9.30;;;6.10;99.90;;;;;;5031157;28;20511;-73
2023/04/19 02:42:33;;;;;;;12.75;9.48;;;6.00;99.90;;;;;;5025966;28;20489;-73
2023/04/19 02:44:59;;;;;;;14.07;9.30;;;6.00;99.90;;;;;;5030629;28;20098;-73
2023/04/19 02:47:24;;;;;;;14.60;9.60;;;5.90;99.90;;;;;;5026752;28;20128;-73
2023/04/19 02:49:50;;;;;;;16.23;10.53;;;5.90;99.90;;;;;;5046680;28;20044;-73
2023/04/19 02:52:16;;;;;;;14.87;10.50;;;5.90;99.90;;;;;;5047388;28;20500;-73
2023/04/19 02:54:41;;;;;;;14.77;10.03;;;5.90;99.90;;;;;;5041134;28;20037;-73
2023/04/19 02:57:07;;;;;;;15.47;10.43;;;5.90;99.90;;;;;;5041937;28;20049;-73
2023/04/19 02:59:33;;;;;;;16.13;10.23;;;5.90;99.90;;;;;;5019691;28;20041;-73
2023/04/19 03:01:58;;;;;;;17.03;10.17;;;5.90;99.90;;;;;;5032826;28;20048;-73
2023/04/19 03:04:24;;;;;;;15.83;10.70;;;5.90;99.90;;;;;;5030762;28;20041;-73
2023/04/19 03:06:50;;;;;;;14.43;9.83;;;5.90;99.90;;;;;;5050807;28;20037;-73
2023/04/19 03:09:16;;;;;;;15.00;10.63;;;5.90;99.90;;;;;;5042582;28;20057;-73
2023/04/19 03:11:42;;;;;;;17.63;10.87;;;5.90;99.90;;;;;;5046707;28;20642;-73
2023/04/19 03:14:07;;;;;;;14.30;10.47;;;6.00;99.90;;;;;;5034657;28;20127;-73
2023/04/19 03:16:33;;;;;;;18.33;10.80;;;5.90;99.90;;;;;;5047123;28;20041;-73
2023/04/19 03:18:59;;;;;;;16.80;10.50;;;5.90;99.90;;;;;;5028676;28;20057;-73
2023/04/19 03:21:26;;;;;;;15.23;10.47;;;5.90;99.90;;;;;;5051012;28;20572;-73
2023/04/19 03:23:53;;;;;;;16.77;11.35;;;5.90;99.90;;;;;;5033947;28;20041;-73
2023/04/19 03:26:18;;;;;;;17.63;10.45;;;5.90;99.90;;;;;;5034463;28;20076;-73
2023/04/19 03:28:44;;;;;;;16.73;10.43;;;5.90;99.90;;;;;;5034191;28;20075;-73
2023/04/19 03:31:10;;;;;;;16.37;9.90;;;5.90;99.90;;;;;;5046380;28;20037;-73
2023/04/19 03:33:35;;;;;;;14.73;9.57;;;5.80;99.90;;;;;;5033656;28;20608;-73
2023/04/19 03:36:01;;;;;;;16.10;9.90;;;5.80;99.90;;;;;;5034271;28;20043;-73
2023/04/19 03:38:27;;;;;;;14.33;9.30;;;5.80;99.90;;;;;;5045856;28;20091;-73
2023/04/19 03:40:54;;;;;;;14.13;8.60;;;5.80;99.90;;;;;;5032513;28;20040;-73
2023/04/19 03:43:21;;;;;;;16.52;10.48;;;5.70;99.90;;;;;;5028334;28;20060;-73
2023/04/19 03:45:46;;;;;;;14.48;9.45;;;5.70;99.90;;;;;;5043974;28;20040;-73
2023/04/19 03:48:12;;;;;;;13.47;9.13;;;5.70;99.90;;;;;;5050630;28;20576;-74
2023/04/19 03:50:38;;;;;;;15.83;9.60;;;5.60;99.90;;;;;;5033721;28;20144;-73
2023/04/19 03:53:04;;;;;;;14.17;9.37;;;5.60;99.90;;;;;;5027759;28;20041;-73
2023/04/19 03:55:30;;;;;;;14.50;8.93;;;5.50;99.90;;;;;;5050700;28;20052;-73
2023/04/19 03:57:56;;;;;;;14.43;9.00;;;5.50;99.90;;;;;;5023079;28;20409;-73
2023/04/19 04:00:22;;;;;;;16.40;8.37;;;5.40;99.90;;;;;;5023126;28;20041;-73
2023/04/19 04:02:47;;;;;;;12.20;7.97;;;5.40;99.90;;;;;;5024718;28;20042;-73
2023/04/19 04:05:13;;;;;;;13.93;8.33;;;5.40;99.90;;;;;;5029122;28;20040;-73
2023/04/19 04:07:39;;;;;;;14.05;8.32;;;5.30;99.90;;;;;;5043559;28;20072;-73
2023/04/19 04:10:05;;;;;;;13.93;8.17;;;5.30;99.90;;;;;;5045150;28;20075;-73
2023/04/19 04:12:31;;;;;;;13.93;7.75;;;5.30;99.90;;;;;;5032234;28;20504;-73
2023/04/19 04:14:57;;;;;;;12.23;7.33;;;5.40;99.90;;;;;;5029725;28;20148;-73
2023/04/19 04:17:25;;;;;;;10.17;7.27;;;5.40;99.90;;;;;;5032394;28;20041;-73
2023/04/19 04:19:51;;;;;;;12.88;7.30;;;5.30;99.90;;;;;;5050093;28;20044;-73
2023/04/19 04:22:17;;;;;;;12.13;7.57;;;5.30;99.90;;;;;;5047146;28;20037;-74
2023/04/19 04:24:43;;;;;;;12.33;8.30;;;5.20;99.90;;;;;;5041387;28;20057;-73
2023/04/19 04:27:09;;;;;;;11.67;7.70;;;5.20;99.90;;;;;;5032471;28;20703;-73
2023/04/19 04:29:36;;;;;;;12.13;7.28;;;5.10;99.90;;;;;;5045099;28;20280;-73
2023/04/19 04:32:09;;;;;;;12.27;7.68;;;5.00;99.90;;;;;;5049162;28;20489;-73
2023/04/19 04:34:36;;;;;;;10.50;7.13;;;5.00;99.90;;;;;;5027360;28;20400;-73
2023/04/19 04:37:02;;;;;;;13.88;6.90;;;5.00;99.90;;;;;;5049825;28;20053;-73
2023/04/19 04:39:29;;;;;;;10.07;6.95;;;5.00;99.90;;;;;;5033152;28;20090;-73
2023/04/19 04:41:56;;;;;;;10.95;7.45;;;5.00;99.90;;;;;;5028890;28;20040;-73
2023/04/19 04:44:22;;;;;;;11.38;7.30;;;4.90;99.90;;;;;;5047482;28;20127;-73
2023/04/19 04:46:48;;;;;;;10.70;7.82;;;4.90;99.90;;;;;;5048814;28;20125;-73
2023/04/19 04:49:14;;;;;;;11.93;7.40;;;4.90;99.90;;;;;;5050438;28;20124;-73
2023/04/19 04:51:40;;;;;;;13.00;7.50;;;4.90;99.90;;;;;;5045448;28;20411;-73
2023/04/19 04:54:05;;;;;;;13.93;7.87;;;4.90;99.90;;;;;;5025558;28;20569;-73
2023/04/19 04:56:31;;;;;;;11.60;7.27;;;4.90;99.90;;;;;;5043442;28;20132;-73
2023/04/19 04:58:58;;;;;;;11.60;7.50;;;4.90;99.90;;;;;;5043408;28;20123;-73
2023/04/19 05:01:23;;;;;;;15.05;7.13;;;4.90;99.90;;;;;;5042683;28;20049;-73
2023/04/19 05:03:50;;;;;;;10.80;7.90;;;4.80;99.90;;;;;;5048419;28;20029;-74
2023/04/19 05:06:16;;;;;;;12.43;7.95;;;4.80;99.90;;;;;;5047324;28;20049;-73
2023/04/19 05:08:44;;;;;;;13.90;7.97;;;4.80;99.90;;;;;;5039793;28;20100;-73
2023/04/19 05:11:09;;;;;;;8.98;6.53;;;4.80;99.90;;;;;;5032103;28;20071;-73
2023/04/19 05:13:35;;;;;;;11.40;7.13;;;4.70;99.90;;;;;;5028723;28;20033;-73
2023/04/19 05:16:01;;;;;;;9.67;6.30;;;4.80;99.90;;;;;;5047524;28;20036;-73
2023/04/19 05:18:26;;;;;;;13.03;7.20;;;4.80;99.90;;;;;;5035823;28;20041;-73
2023/04/19 05:20:52;;;;;;;12.67;6.80;;;4.90;99.90;;;;;;5027206;28;20033;-73
2023/04/19 05:23:18;;;;;;;9.97;5.90;;;4.90;99.90;;;;;;5021312;28;20058;-73
2023/04/19 05:25:44;;;;;;;12.67;6.63;;;4.90;99.90;;;;;;5016920;28;20128;-73
2023/04/19 05:28:09;;;;;;;8.63;6.30;;;5.00;99.90;;;;;;5041625;28;20036;-73
2023/04/19 05:30:35;;;;;;;10.13;5.90;;;5.10;99.90;;;;;;5025884;28;20033;-73
2023/04/19 05:33:01;;;;;;;9.77;6.20;;;5.10;99.90;;;;;;5044996;28;20441;-73
2023/04/19 05:35:26;;;;;;;8.70;6.07;;;5.20;99.90;;;;;;5027758;28;20053;-73
2023/04/19 05:37:52;;;;;;;10.83;6.20;;;5.20;99.90;;;;;;5020300;28;20037;-73
2023/04/19 05:40:18;;;;;;;9.93;5.97;;;5.20;99.90;;;;;;5020388;28;20562;-73
2023/04/19 05:42:44;;;;;;;10.60;6.10;;;5.30;99.90;;;;;;5035345;28;20049;-73
2023/04/19 05:45:10;;;;;;;9.13;5.70;;;5.40;99.90;;;;;;5045419;28;20472;-73
2023/04/19 05:47:35;;;;;;;10.75;6.20;;;5.40;99.90;;;;;;5023496;28;20099;-73
2023/04/19 05:50:02;;;;;;;9.07;5.47;;;5.50;99.90;;;;;;5039330;28;20033;-73
2023/04/19 05:52:28;;;;;;;8.88;5.72;;;5.50;99.90;;;;;;5024547;28;20508;-73
2023/04/19 05:54:54;;;;;;;10.00;6.17;;;5.50;99.90;;;;;;5021670;28;20037;-73
2023/04/19 05:57:20;;;;;;;8.60;5.50;;;5.60;99.90;;;;;;5018616;28;20048;-73
2023/04/19 05:59:46;;;;;;;7.93;5.57;;;5.60;99.90;;;;;;5020762;28;20392;-73
2023/04/19 06:02:11;;;;;;;8.33;5.43;;;5.70;99.90;;;;;;5016305;28;20138;-73
2023/04/19 06:04:37;;;;;;;10.57;5.37;;;5.70;99.90;;;;;;5027011;28;20289;-73
2023/04/19 06:07:03;;;;;;;8.67;5.17;;;5.80;99.90;;;;;;5025163;28;20060;-73
2023/04/19 06:09:29;;;;;;;8.07;5.23;;;5.90;99.90;;;;;;5045304;28;20464;-73
2023/04/19 06:11:55;;;;;;;9.23;5.53;;;6.00;99.90;;;;;;5048290;28;20076;-73
2023/04/19 06:14:21;;;;;;;8.55;5.10;;;6.10;99.90;;;;;;5031820;28;20049;-73
2023/04/19 06:16:47;;;;;;;9.32;4.60;;;6.20;99.90;;;;;;5048247;28;20037;-73
2023/04/19 06:19:13;;;;;;;6.80;4.40;;;6.30;99.90;;;;;;5031658;28;20548;-73
2023/04/19 06:21:38;;;;;;;8.13;4.77;;;6.40;99.90;;;;;;5043672;28;20110;-73
2023/04/19 06:24:07;;;;;;;7.13;4.50;;;6.50;99.90;;;;;;5041878;28;20042;-73
2023/04/19 06:26:33;;;;;;;7.93;4.93;;;6.50;99.90;;;;;;5046482;28;20531;-73
2023/04/19 06:28:59;;;;;;;6.70;4.30;;;6.70;99.90;;;;;;5026937;28;20068;-73
2023/04/19 06:31:24;;;;;;;8.37;4.40;;;6.70;99.90;;;;;;5044137;28;20456;-73
2023/04/19 06:33:50;;;;;;;6.23;4.33;;;6.90;99.90;;;;;;5031572;28;20484;-73
2023/04/19 06:36:16;;;;;;;6.20;4.20;;;7.00;98.60;;;;;;5047537;28;20055;-73
2023/04/19 06:38:43;;;;;;;7.87;4.17;;;7.10;96.10;;;;;;5031078;28;20041;-73
2023/04/19 06:41:09;;;;;;;6.32;3.33;;;7.20;95.90;;;;;;5045561;28;20041;-73
2023/04/19 06:43:35;;;;;;;6.03;3.92;;;7.30;95.10;;;;;;5031159;28;20045;-73
2023/04/19 06:46:03;;;;;;;6.53;3.40;;;7.40;94.10;;;;;;5025479;28;20404;-74
2023/04/19 06:48:29;;;;;;;7.68;3.65;;;7.50;92.40;;;;;;5032791;28;20540;-73
2023/04/19 06:50:55;;;;;;;5.40;3.20;;;7.60;90.00;;;;;;5032881;28;20040;-74
2023/04/19 06:53:22;;;;;;;5.60;3.28;;;7.70;88.40;;;;;;5026285;28;20045;-73
2023/04/19 06:55:48;;;;;;;3.97;2.97;;;7.70;87.60;;;;;;5030002;28;20049;-74
2023/04/19 06:58:14;;;;;;;5.78;3.50;;;7.80;88.10;;;;;;5038546;28;20037;-74
2023/04/19 07:00:39;;;;;;;4.93;3.20;;;7.90;88.10;;;;;;5041892;28;20052;-73
2023/04/19 07:03:05;;;;;;;5.53;3.03;;;8.00;86.50;;;;;;5030136;28;20045;-74
2023/04/19 07:05:31;;;;;;;6.37;3.30;;;8.10;86.10;;;;;;5025206;28;20049;-76
2023/04/19 07:07:57;;;;;;;6.67;2.90;;;8.10;85.20;;;;;;5050052;28;20107;-74
2023/04/19 07:10:23;;;;;;;6.50;3.40;;;8.20;85.80;;;;;;5050157;28;20041;-73
2023/04/19 07:12:49;;;;;;;6.78;2.90;;;8.30;84.10;;;;;;5032900;28;20045;-74
2023/04/19 07:15:15;;;;;;;4.97;2.97;;;8.30;83.90;;;;;;5023396;28;20120;-74
2023/04/19 07:17:41;;;;;;;3.78;2.13;;;8.40;83.60;;;;;;5039401;28;20509;-73
2023/04/19 07:20:08;;;;;;;4.63;2.63;;;8.50;78.90;;;;;;5048172;28;20078;-73
2023/04/19 07:22:34;;;;;;;3.40;2.30;;;8.60;78.50;;;;;;5040203;28;20445;-73
2023/04/19 07:25:00;;;;;;;5.53;2.70;;;8.60;76.40;;;;;;5023410;28;20044;-74
2023/04/19 07:27:26;;;;;;;5.50;2.23;;;8.70;78.80;;;;;;5027732;28;20045;-73
2023/04/19 07:29:52;;;;;;;5.13;2.90;;;8.70;78.60;;;;;;5025778;28;20038;-73
2023/04/19 07:32:18;;;;;;;3.72;2.08;;;8.80;79.90;;;;;;5029681;28;20049;-74
2023/04/19 07:34:44;;;;;;;4.17;2.13;;;8.90;78.30;;;;;;5040244;28;20633;-74
2023/04/19 07:37:11;;;;;;;4.20;1.90;;;9.00;76.20;;;;;;5043255;28;20076;-74
2023/04/19 07:39:37;;;;;;;3.90;1.80;;;9.10;70.50;;;;;;5045318;28;20093;-73
2023/04/19 07:42:03;;;;;;;3.70;1.70;;;9.10;68.80;;;;;;5022040;28;20088;-73
2023/04/19 07:44:29;;;;;;;3.10;1.83;;;9.20;68.20;;;;;;5022602;28;20076;-76
2023/04/19 07:46:55;;;;;;;4.23;1.87;;;9.30;68.20;;;;;;5028009;28;20040;-74
2023/04/19 07:49:20;;;;;;;3.67;1.43;;;9.40;66.70;;;;;;5044110;28;20280;-74
2023/04/19 07:51:46;;;;;;;3.93;1.27;;;9.50;63.90;;;;;;5047560;28;20041;-74
2023/04/19 07:54:12;;;;;;;2.50;1.27;;;9.50;60.70;;;;;;5027799;28;20044;-74
2023/04/19 07:56:37;;;;;;;1.93;1.20;;;9.50;61.90;;;;;;5030101;28;20668;-73
2023/04/19 07:59:03;;;;;;;3.80;1.47;;;9.60;60.80;;;;;;5035245;28;20110;-73
2023/04/19 08:01:29;;;;;;;3.63;1.50;;;9.60;60.50;;;;;;5046955;28;20041;-75
2023/04/19 08:03:55;;;;;;;1.83;1.13;;;9.70;60.70;;;;;;5022787;28;20451;-73
2023/04/19 08:06:20;;;;;;;2.60;1.40;;;9.80;59.10;;;;;;5051433;28;20120;-74
2023/04/19 08:08:47;;;;;;;2.33;1.40;;;9.80;58.90;;;;;;5028221;28;20414;-74
2023/04/19 08:11:13;;;;;;;4.72;1.30;;;9.90;59.50;;;;;;5031938;28;20045;-75
2023/04/19 08:13:38;;;;;;;3.10;1.57;;;9.90;57.50;;;;;;5043330;28;20049;-74
2023/04/19 08:16:05;;;;;;;3.27;1.60;;;10.00;58.20;;;;;;5034860;28;20033;-73
2023/04/19 08:18:33;;;;;;;2.35;1.50;;;10.10;57.50;;;;;;5037748;28;20045;-75
2023/04/19 08:20:58;;;;;;;3.22;1.38;;;10.10;59.40;;;;;;5025688;28;20037;-74
2023/04/19 08:23:24;;;;;;;3.33;1.63;;;10.20;56.90;;;;;;5041743;28;20111;-73
2023/04/19 08:25:50;;;;;;;3.83;1.80;;;10.30;56.50;;;;;;5034215;28;20136;-73
2023/04/19 08:28:17;;;;;;;4.00;1.70;;;10.30;54.80;;;;;;5032000;28;20279;-75
2023/04/19 08:30:43;;;;;;;3.95;1.80;;;10.40;54.80;;;;;;5022298;28;20609;-74
2023/04/19 08:33:09;;;;;;;2.73;1.40;;;10.40;55.20;;;;;;5024103;28;20079;-74
2023/04/19 08:35:36;;;;;;;6.68;1.90;;;10.50;55.70;;;;;;5048793;28;20048;-75
2023/04/19 08:38:03;;;;;;;2.08;1.50;;;10.60;56.10;;;;;;5047672;28;20130;-74
2023/04/19 08:40:32;;;;;;;3.55;1.60;;;10.70;54.70;;;;;;5048523;28;20056;-74
2023/04/19 08:42:59;;;;;;;4.65;1.50;;;10.80;55.50;;;;;;5022691;28;20041;-74
2023/04/19 08:45:28;;;;;;;3.40;1.70;;;10.90;55.90;;;;;;5033209;28;20099;-74
2023/04/19 08:47:56;;;;;;;2.80;1.63;;;11.00;52.60;;;;;;5031140;28;20120;-73
2023/04/19 08:50:22;;;;;;;2.25;1.38;;;11.00;50.00;;;;;;5029243;28;20041;-75
2023/04/19 08:52:48;;;;;;;3.20;1.55;;;11.00;49.10;;;;;;5048636;28;20049;-73
2023/04/19 08:55:14;;;;;;;3.70;1.50;;;11.00;49.70;;;;;;5024607;28;20046;-75
2023/04/19 08:57:40;;;;;;;2.60;1.77;;;11.10;50.50;;;;;;5048539;28;20045;-75
2023/04/19 09:00:08;;;;;;;3.13;1.67;;;11.20;48.20;;;;;;5028720;28;20127;-73
2023/04/19 09:02:48;;;;;;;2.70;1.65;;;11.20;49.80;;;;;;5043506;28;20049;-74
2023/04/19 09:05:15;;;;;;;3.70;1.52;;;11.30;48.90;;;;;;5032870;28;20033;-74
2023/04/19 09:07:43;;;;;;;5.47;1.65;;;11.40;46.50;;;;;;5045487;28;20041;-74
2023/04/19 09:10:17;;;;;;;3.17;1.50;;;11.50;48.60;;;;;;5033860;28;20048;-74
2023/04/19 09:13:02;;;;;;;2.88;1.65;;;11.60;47.10;;;;;;5026469;28;20045;-74
2023/04/19 09:15:38;;;;;;;4.20;1.73;;;11.60;45.80;;;;;;5047688;28;20128;-74
2023/04/19 09:18:06;;;;;;;4.07;1.52;;;11.60;48.00;;;;;;5049706;28;20409;-74
2023/04/19 09:20:41;;;;;;;1.77;1.05;;;11.80;47.40;;;;;;5032602;28;20785;-73
2023/04/19 09:23:11;;;;;;;5.30;1.00;;;11.80;44.30;;;;;;5032201;28;20041;-73
2023/04/19 09:25:37;;;;;;;2.78;1.35;;;11.90;45.50;;;;;;5047491;28;20056;-73
2023/04/19 09:28:13;;;;;;;3.22;1.15;;;11.90;45.80;;;;;;5031605;28;20511;-73
2023/04/19 09:30:39;;;;;;;;;;;11.90;45.30;;;;;;5042734;28;20036;-73
2023/04/19 09:33:04;;;;;;;2.88;1.30;;;11.80;45.90;;;;;;5049042;28;19916;-73
2023/04/19 09:35:48;;;;;;;3.47;1.37;;;11.90;47.90;;;;;;5023426;28;20048;-73
2023/04/19 09:38:15;;;;;;;3.55;1.00;;;11.90;48.70;;;;;;5030560;28;20044;-74
2023/04/19 09:40:41;;;;;;;2.80;1.40;;;12.10;47.80;;;;;;5043447;28;20500;-74
2023/04/19 09:43:07;;;;;;;3.22;1.50;;;12.10;48.60;;;;;;5017748;28;20046;-74
2023/04/19 09:45:44;;;;;;;3.20;1.30;;;12.20;49.30;;;;;;5018955;28;20045;-74
2023/04/19 09:48:11;;;;;;;3.17;1.20;;;12.30;48.70;;;;;;5031990;28;20037;-74
2023/04/19 09:50:51;;;;;;;3.20;1.00;;;12.40;47.50;;;;;;5048529;28;20045;-74
2023/04/19 09:53:18;;;;;;;3.17;1.25;;;12.50;48.40;;;;;;5030946;28;20037;-73
2023/04/19 09:55:46;;;;;;;2.92;1.48;;;12.50;47.40;;;;;;5048357;28;20105;-74
2023/04/19 09:58:12;;;;;;;4.13;1.58;;;12.50;47.40;;;;;;5032362;28;20377;-74
2023/04/19 10:00:40;;;;;;;3.67;1.80;;;12.50;48.70;;;;;;5031334;28;20130;-74
2023/04/19 10:03:08;;;;;;;2.00;1.53;;;12.50;49.50;;;;;;5043576;28;20110;-74
2023/04/19 10:05:38;;;;;;;4.40;1.50;;;12.60;49.60;;;;;;5027915;28;20431;-74
2023/04/19 10:08:06;;;;;;;2.50;1.67;;;12.70;48.60;;;;;;5026558;28;20290;-74
2023/04/19 10:10:32;;;;;;;3.85;1.40;;;12.70;48.00;;;;;;5022118;28;20791;-73
2023/04/19 10:12:59;;;;;;;3.60;1.60;;;12.70;48.20;;;;;;5031480;28;20102;-74
2023/04/19 10:15:29;;;;;;;3.37;1.67;;;12.80;47.50;;;;;;5023170;28;20055;-74
2023/04/19 10:17:55;;;;;;;1.87;1.20;;;12.80;46.60;;;;;;5046178;28;20286;-74
2023/04/19 10:20:45;;;;;;;3.23;1.40;;;12.70;49.00;;;;;;5031582;28;20305;-74
2023/04/19 10:23:11;;;;;;;1.93;1.20;;;12.80;48.40;;;;;;5034570;28;20379;-74
2023/04/19 10:25:37;;;;;;;2.03;1.17;;;12.80;48.50;;;;;;5024960;28;20296;-75
2023/04/19 10:28:03;;;;;;;2.63;1.37;;;12.90;47.70;;;;;;5023531;28;20287;-75
2023/04/19 10:30:29;;;;;;;3.20;1.20;;;12.90;47.50;;;;;;5036912;28;20791;-75
2023/04/19 10:32:58;;;;;;;3.27;1.10;;;12.90;47.60;;;;;;5048760;28;20124;-75
2023/04/19 10:35:28;;;;;;;1.70;1.10;;;13.00;46.80;;;;;;5026426;28;20288;-75
2023/04/19 10:38:15;;;;;;;2.57;1.23;;;13.10;47.00;;;;;;5047752;28;20294;-75
2023/04/19 10:41:00;;;;;;;3.43;1.20;;;13.10;47.40;;;;;;5045812;28;20283;-75
2023/04/19 10:43:28;;;;;;;2.40;0.98;;;13.10;46.70;;;;;;5026429;28;20866;-76
2023/04/19 10:45:59;;;;;;;7.80;1.30;;;13.20;45.40;;;;;;5044789;28;20033;-75
2023/04/19 10:48:34;;;;;;;2.33;0.97;;;13.20;44.40;;;;;;5041383;28;20966;-76
2023/04/19 10:51:14;;;;;;;2.45;1.00;;;13.20;45.20;;;;;;5022270;28;20287;-75
2023/04/19 10:53:52;;;;;;;3.73;1.17;;;13.30;44.60;;;;;;5049108;28;20076;-75
2023/04/19 10:56:33;;;;;;;1.50;0.90;;;13.30;43.70;;;;;;5039245;28;20271;-75
2023/04/19 10:59:11;;;;;;;1.10;0.80;;;13.30;44.50;;;;;;5030865;28;20276;-75
2023/04/19 11:01:48;;;;;;;3.20;0.80;;;13.40;44.00;;;;;;5046681;28;20860;-75
2023/04/19 11:04:18;;;;;;;2.70;0.90;;;13.40;43.90;;;;;;5042854;28;20382;-75
2023/04/19 11:06:52;;;;;;;2.17;0.93;;;13.40;44.60;;;;;;5023229;28;20281;-76
2023/04/19 11:09:33;;;;;;;3.05;0.82;;;13.50;45.00;;;;;;5024336;28;20881;-75
2023/04/19 11:12:03;;;;;;;2.47;1.00;;;13.50;44.40;;;;;;5035962;28;20083;-75
2023/04/19 11:14:40;;;;;;;2.57;0.77;;;13.60;45.00;;;;;;5024185;28;20727;-75
2023/04/19 11:17:27;;;;;;;1.80;0.80;;;13.60;45.90;;;;;;5041416;28;20298;-75
2023/04/19 11:19:54;;;;;;;4.03;0.70;;;13.80;45.20;;;;;;5049196;28;20282;-74
2023/04/19 11:22:59;;;;;;;1.63;0.70;;;13.90;44.20;;;;;;5050796;28;20851;-74
2023/04/19 11:25:26;;;;;;;1.30;0.60;;;13.90;45.50;;;;;;5026049;28;20295;-75
2023/04/19 11:27:53;;;;;;;2.30;1.10;;;14.00;44.70;;;;;;5036259;28;20279;-74
2023/04/19 11:30:21;;;;;;;3.53;0.73;;;14.00;44.70;;;;;;5034161;28;20285;-74
2023/04/19 11:32:56;;;;;;;3.23;1.07;;;14.00;42.40;;;;;;5027919;28;20801;-74
2023/04/19 11:35:29;;;;;;;3.27;0.60;;;14.00;44.10;;;;;;5045088;28;20284;-76
2023/04/19 11:37:55;;;;;;;3.20;1.40;;;14.00;43.20;;;;;;5036122;28;20283;-75
2023/04/19 11:40:27;;;;;;;3.73;1.10;;;14.00;43.30;;;;;;5053443;28;20608;-75
2023/04/19 11:42:55;;;;;;;2.07;0.90;;;14.00;43.50;;;;;;5026806;28;20308;-75
2023/04/19 11:45:39;;;;;;;2.10;1.03;;;14.00;45.10;;;;;;5043612;28;20338;-74
2023/04/19 11:48:06;;;;;;;1.27;0.90;;;14.10;43.80;;;;;;5045664;28;20319;-75
2023/04/19 11:50:40;;;;;;;1.53;0.80;;;14.10;44.90;;;;;;5031649;28;20676;-75
2023/04/19 11:53:22;;;;;;;2.53;0.90;;;14.10;43.80;;;;;;5024724;28;20275;-75
2023/04/19 11:55:50;;;;;;;1.33;0.83;;;14.00;43.70;;;;;;5047859;28;20322;-75
2023/04/19 11:58:28;;;;;;;3.17;1.00;;;14.00;43.50;;;;;;5048361;28;20286;-75
2023/04/19 12:01:06;;;;;;;4.10;1.57;;;14.00;44.30;;;;;;5028444;28;20280;-75
2023/04/19 12:03:39;;;;;;;3.00;1.53;;;14.10;46.50;;;;;;5029283;28;20303;-75
2023/04/19 12:06:09;;;;;;;2.63;1.13;;;14.10;45.60;;;;;;5020290;28;20284;-74
2023/04/19 12:08:41;;;;;;;2.90;1.60;;;14.10;44.60;;;;;;5049274;28;20286;-75
2023/04/19 12:11:07;;;;;;;2.40;1.40;;;14.00;44.70;;;;;;5034151;28;20350;-75
2023/04/19 12:13:33;;;;;;;3.13;1.10;;;14.00;45.20;;;;;;5049677;28;20472;-75
2023/04/19 12:16:00;;;;;;;2.77;1.40;;;14.00;46.60;;;;;;5034132;28;20041;-75
2023/04/19 12:18:26;;;;;;;2.33;1.00;;;14.10;44.50;;;;;;5061389;28;20283;-74
2023/04/19 12:20:52;;;;;;;3.50;1.37;;;14.00;45.90;;;;;;5026178;28;20692;-75
2023/04/19 12:23:19;;;;;;;2.70;1.40;;;14.10;46.10;;;;;;5025555;28;20359;-75
2023/04/19 12:25:47;;;;;;;2.87;1.17;;;14.10;45.90;;;;;;5033757;28;20291;-75
2023/04/19 12:28:14;;;;;;;4.53;1.57;;;14.10;45.80;;;;;;5044223;28;20759;-75
2023/04/19 12:30:40;;;;;;;3.50;1.17;;;14.10;45.90;;;;;;5034885;28;20672;-75
2023/04/19 12:33:07;;;;;;;3.60;1.47;;;14.20;46.10;;;;;;5049605;28;20292;-75
2023/04/19 12:35:33;;;;;;;3.43;1.60;;;14.30;46.60;;;;;;5049823;28;20283;-74
2023/04/19 12:37:59;;;;;;;4.23;1.93;;;14.20;46.40;;;;;;5031478;28;20690;-74
2023/04/19 12:40:26;;;;;;;2.70;1.70;;;14.30;47.50;;;;;;5043977;28;20283;-75
2023/04/19 12:42:52;;;;;;;3.07;1.23;;;14.40;47.90;;;;;;5032478;28;20045;-75
2023/04/19 12:45:19;;;;;;;2.53;1.40;;;14.40;46.80;;;;;;5020260;28;20291;-75
2023/04/19 12:47:46;;;;;;;3.57;1.40;;;14.40;45.10;;;;;;5033175;28;20290;-75
2023/04/19 12:50:12;;;;;;;3.60;1.40;;;14.40;44.70;;;;;;5033623;28;20770;-75